createdAt,value
2018-11-23T00:00:27.646Z,5.50
2018-11-23T00:02:57.236Z,5.50
2018-11-23T00:05:26.143Z,5.50
2018-11-23T00:07:55.597Z,5.50
2018-11-23T00:10:25.723Z,5.50
2018-11-23T00:12:54.553Z,5.40
2018-11-23T00:15:24.468Z,5.40
2018-11-23T00:17:53.381Z,5.30
2018-11-23T00:20:23.705Z,5.40
2018-11-23T00:22:53.598Z,5.40
2018-11-23T00:25:23.928Z,5.40
2018-11-23T00:27:53.129Z,5.50
2018-11-23T00:30:23.432Z,5.40
2018-11-23T00:32:52.894Z,5.40
2018-11-23T00:35:23.977Z,5.30
2018-11-23T00:37:53.405Z,5.20
2018-11-23T00:40:24.472Z,5.20
2018-11-23T00:42:53.474Z,5.20
2018-11-23T00:45:22.675Z,5.40
2018-11-23T00:47:52.263Z,5.30
2018-11-23T00:50:22.159Z,5.40
2018-11-23T00:52:51.609Z,5.50
2018-11-23T00:55:22.616Z,5.40
2018-11-23T00:57:51.463Z,5.50
2018-11-23T01:00:25.131Z,5.40
2018-11-23T01:02:54.550Z,5.40
2018-11-23T01:05:23.732Z,5.40
2018-11-23T01:07:52.865Z,5.30
2018-11-23T01:10:23.386Z,5.20
2018-11-23T01:12:53.560Z,5.40
2018-11-23T01:15:22.679Z,5.20
2018-11-23T01:17:51.670Z,5.20
2018-11-23T01:20:21.802Z,5.20
2018-11-23T01:35:20.309Z,5.20
2018-11-23T08:49:21.563Z,5.40
2018-11-23T08:51:50.445Z,5.90
2018-11-23T08:54:19.297Z,6.10
2018-11-23T08:56:48.225Z,6.10
2018-11-23T08:59:17.124Z,5.90
2018-11-23T09:01:46.039Z,5.70
2018-11-23T09:33:59.405Z,6.60
2018-11-23T09:36:28.377Z,6.60
2018-11-23T09:38:57.416Z,6.40
2018-11-23T09:41:26.336Z,6.50
2018-11-23T09:43:55.485Z,6.50
2018-11-23T09:46:24.354Z,6.60
2018-11-23T09:48:53.332Z,6.60
2018-11-23T09:51:22.297Z,6.50
2018-11-23T09:53:51.195Z,6.50
2018-11-23T09:56:20.090Z,6.50
2018-11-23T09:58:48.951Z,6.60
2018-11-23T10:01:17.791Z,6.70
2018-11-23T10:03:46.641Z,6.80
2018-11-23T10:06:15.728Z,7.00
2018-11-23T10:08:44.724Z,6.90
2018-11-23T10:11:13.670Z,6.70
2018-11-23T10:13:42.495Z,6.80
2018-11-23T10:16:11.398Z,7.00
2018-11-23T10:18:40.228Z,7.10
2018-11-23T10:21:09.256Z,7.00
2018-11-23T10:23:38.753Z,7.80
2018-11-23T10:26:07.749Z,9.30
2018-11-23T10:28:37.585Z,11.00
2018-11-23T10:31:06.588Z,10.70
2018-11-23T10:33:37.505Z,11.90
2018-11-23T10:36:08.218Z,10.70
2018-11-23T10:38:43.413Z,9.60
2018-11-23T10:41:12.421Z,8.80
2018-11-23T10:43:41.249Z,8.40
2018-11-23T10:46:10.106Z,8.20
2018-11-23T10:48:43.572Z,7.90
2018-11-23T10:51:12.381Z,8.10
2018-11-23T10:53:41.301Z,7.90
2018-11-23T10:56:13.018Z,7.90
2018-11-23T10:58:43.677Z,8.10
2018-11-23T11:01:19.931Z,8.00
2018-11-23T11:03:54.610Z,8.00
2018-11-23T11:06:33.122Z,8.00
2018-11-23T11:09:07.917Z,8.00
2018-11-23T11:11:37.000Z,8.10
2018-11-23T11:14:06.024Z,8.10
2018-11-23T11:16:35.413Z,8.00
2018-11-23T11:19:04.997Z,8.00
2018-11-23T11:21:34.089Z,8.00
2018-11-23T11:24:03.382Z,8.10
2018-11-23T11:26:32.215Z,8.00
2018-11-23T11:29:01.277Z,8.00
2018-11-23T11:31:30.133Z,7.90
2018-11-23T11:33:59.170Z,8.10
2018-11-23T11:36:28.057Z,8.10
2018-11-23T11:38:56.837Z,7.90
2018-11-23T11:41:25.696Z,7.90
2018-11-23T11:43:54.634Z,7.90
2018-11-23T11:46:23.442Z,8.10
2018-11-23T11:48:52.311Z,8.20
2018-11-23T11:51:21.153Z,8.10
2018-11-23T11:53:49.937Z,8.30
2018-11-23T11:56:19.811Z,8.30
2018-11-23T11:58:48.688Z,8.30
2018-11-23T12:01:17.524Z,8.30
2018-11-23T12:03:46.362Z,8.20
2018-11-23T12:06:15.221Z,8.30
2018-11-23T12:08:44.122Z,8.30
2018-11-23T12:11:13.597Z,8.30
2018-11-23T12:13:42.409Z,8.20
2018-11-23T12:16:11.512Z,8.20
2018-11-23T12:21:23.919Z,8.20
2018-11-23T12:23:53.119Z,8.30
2018-11-23T12:26:21.991Z,8.20
2018-11-23T12:28:53.131Z,8.30
2018-11-23T12:31:22.101Z,8.30
2018-11-23T12:33:52.080Z,8.30
2018-11-23T12:36:21.469Z,8.40
2018-11-23T12:38:52.436Z,8.40
2018-11-23T12:41:21.774Z,8.30
2018-11-23T12:43:51.581Z,8.30
2018-11-23T12:46:20.706Z,8.20
2018-11-23T12:50:16.540Z,8.20
2018-11-23T12:52:45.600Z,8.30
2018-11-23T12:55:15.143Z,8.40
2018-11-23T12:57:44.336Z,8.40
2018-11-23T13:00:19.806Z,8.30
2018-11-23T13:02:51.969Z,8.40
2018-11-23T13:05:22.215Z,8.40
2018-11-23T13:07:52.178Z,8.40
2018-11-23T13:10:22.740Z,8.40
2018-11-23T13:12:52.351Z,8.30
2018-11-23T13:15:21.353Z,8.40
2018-11-23T13:17:50.331Z,8.40
2018-11-23T13:20:19.162Z,8.30
2018-11-23T13:22:48.224Z,8.30
2018-11-23T13:25:18.760Z,8.20
2018-11-23T13:27:47.633Z,8.30
2018-11-23T13:30:20.138Z,8.20
2018-11-23T13:32:49.058Z,8.30
2018-11-23T13:35:18.749Z,8.30
2018-11-23T13:37:48.018Z,8.30
2018-11-23T13:40:18.290Z,8.50
2018-11-23T13:42:47.572Z,8.40
2018-11-23T13:45:19.026Z,8.40
2018-11-23T13:47:47.924Z,8.20
2018-11-23T13:50:19.047Z,8.10
2018-11-23T13:52:50.686Z,8.10
2018-11-23T13:55:19.591Z,8.20
2018-11-23T13:57:48.468Z,8.20
2018-11-23T14:00:19.505Z,8.10
2018-11-23T14:02:48.526Z,8.10
2018-11-23T14:05:18.642Z,7.90
2018-11-23T14:07:49.183Z,8.00
2018-11-23T14:10:19.509Z,8.10
2018-11-23T14:12:48.486Z,8.20
2018-11-23T14:15:19.609Z,8.20
2018-11-23T14:17:49.352Z,8.10
2018-11-23T14:20:19.012Z,8.00
2018-11-23T14:22:48.056Z,8.10
2018-11-23T14:25:18.393Z,8.00
2018-11-23T14:27:47.673Z,7.90
2018-11-23T14:30:20.442Z,8.00
2018-11-23T14:32:49.801Z,7.90
2018-11-23T14:35:26.666Z,8.10
2018-11-23T14:37:56.369Z,8.10
2018-11-23T14:40:25.323Z,8.10
2018-11-23T14:42:54.751Z,8.00
2018-11-23T14:45:26.692Z,8.00
2018-11-23T14:47:56.735Z,8.10
2018-11-23T14:50:27.425Z,8.10
2018-11-23T14:52:56.969Z,7.90
2018-11-23T14:55:26.392Z,7.80
2018-11-23T14:57:55.872Z,7.80
2018-11-23T15:00:28.426Z,7.80
2018-11-23T15:02:58.572Z,7.80
2018-11-23T15:05:27.538Z,7.80
2018-11-23T15:07:56.524Z,7.90
2018-11-23T15:10:26.590Z,7.80
2018-11-23T15:12:56.890Z,7.90
2018-11-23T15:15:28.348Z,7.90
2018-11-23T15:17:59.425Z,7.90
2018-11-23T15:20:33.612Z,7.90
2018-11-23T15:23:05.585Z,8.00
2018-11-23T15:35:32.870Z,8.00
2018-11-23T15:38:01.942Z,7.90
2018-11-23T15:40:31.811Z,8.00
2018-11-23T15:43:02.112Z,8.00
2018-11-23T15:45:31.956Z,8.10
2018-11-23T15:48:01.525Z,8.10
2018-11-23T15:50:31.859Z,8.10
2018-11-23T15:53:01.606Z,8.00
2018-11-23T15:55:33.066Z,8.10
2018-11-23T15:58:04.105Z,8.10
2018-11-23T16:00:34.252Z,8.00
2018-11-23T16:03:04.488Z,8.00
2018-11-23T16:05:35.669Z,8.00
2018-11-23T16:08:08.467Z,8.10
2018-11-23T16:10:38.088Z,8.00
2018-11-23T16:13:11.322Z,8.00
2018-11-23T16:15:37.768Z,8.00
2018-11-23T16:18:07.061Z,8.00
2018-11-23T16:20:38.224Z,8.00
2018-11-23T16:23:08.926Z,8.00
2018-11-23T16:25:38.272Z,8.00
2018-11-23T16:28:08.084Z,7.80
2018-11-23T16:30:39.294Z,8.00
2018-11-23T16:33:09.641Z,8.00
2018-11-23T16:35:41.055Z,8.00
2018-11-23T16:38:11.918Z,8.00
2018-11-23T16:40:42.355Z,7.90
2018-11-23T16:43:12.353Z,8.00
2018-11-23T16:45:41.957Z,7.80
2018-11-23T16:48:11.810Z,7.80
2018-11-23T16:50:40.893Z,7.80
2018-11-23T16:53:09.871Z,7.90
2018-11-23T16:55:38.840Z,7.90
2018-11-23T16:58:11.921Z,7.90
2018-11-23T17:00:44.145Z,7.80
2018-11-23T17:03:15.752Z,7.80
2018-11-23T17:05:46.180Z,7.70
2018-11-23T17:08:15.103Z,7.80
2018-11-23T17:10:43.923Z,7.70
2018-11-23T17:13:12.961Z,7.80
2018-11-23T17:15:41.924Z,7.70
2018-11-23T17:18:10.869Z,7.60
2018-11-23T17:20:40.154Z,7.60
2018-11-23T17:23:10.164Z,7.60
2018-11-23T17:25:40.341Z,7.50
2018-11-23T17:28:10.452Z,7.50
2018-11-23T17:30:40.105Z,7.60
2018-11-23T17:33:08.997Z,7.50
2018-11-23T17:35:37.842Z,7.50
2018-11-23T17:38:07.350Z,7.40
2018-11-23T17:40:40.883Z,7.60
2018-11-23T17:43:10.581Z,7.60
2018-11-23T17:45:40.405Z,7.60
2018-11-23T17:48:09.501Z,7.60
2018-11-23T17:50:39.416Z,7.50
2018-11-23T17:53:09.749Z,7.60
2018-11-23T17:55:38.756Z,7.60
2018-11-23T17:58:08.632Z,7.50
2018-11-23T18:00:39.297Z,7.50
2018-11-23T18:03:07.799Z,7.30
2018-11-23T18:05:36.702Z,7.30
2018-11-23T18:08:05.924Z,7.40
2018-11-23T18:10:35.385Z,7.50
2018-11-23T18:13:04.339Z,7.50
2018-11-23T18:15:34.295Z,7.50
2018-11-23T18:18:04.169Z,7.40
2018-11-23T18:20:33.703Z,7.30
2018-11-23T18:23:03.278Z,7.40
2018-11-23T18:25:35.901Z,7.50
2018-11-23T18:28:04.999Z,7.40
2018-11-23T18:30:34.362Z,7.40
2018-11-23T18:33:06.683Z,7.30
2018-11-23T18:35:35.631Z,7.30
2018-11-23T18:38:04.662Z,7.30
2018-11-23T18:40:37.283Z,7.30
2018-11-23T18:43:03.320Z,7.30
2018-11-23T18:45:32.162Z,7.30
2018-11-23T18:48:01.557Z,7.30
2018-11-23T18:50:32.297Z,7.30
2018-11-23T18:53:04.102Z,7.30
2018-11-23T18:55:34.788Z,7.30
2018-11-23T18:58:04.883Z,7.30
2018-11-23T19:00:34.718Z,7.20
2018-11-23T19:03:04.268Z,7.30
2018-11-23T19:05:33.137Z,7.20
2018-11-23T19:08:14.432Z,7.30
2018-11-23T19:10:43.316Z,7.20
2018-11-23T19:13:12.164Z,7.20
2018-11-23T19:15:43.796Z,7.20
2018-11-23T19:18:12.745Z,7.20
2018-11-23T19:20:41.629Z,7.20
2018-11-23T19:23:10.513Z,7.20
2018-11-23T19:25:39.347Z,7.10
2018-11-23T19:28:08.279Z,7.30
2018-11-23T19:30:37.091Z,7.30
2018-11-23T19:33:06.131Z,7.30
2018-11-23T19:35:34.992Z,7.20
2018-11-23T19:38:03.852Z,7.30
2018-11-23T19:40:32.694Z,7.30
2018-11-23T19:43:01.569Z,7.20
2018-11-23T19:48:11.276Z,7.10
2018-11-23T19:50:40.171Z,7.00
2018-11-23T19:53:10.247Z,6.90
2018-11-23T19:55:41.042Z,6.70
2018-11-23T19:58:11.544Z,6.70
2018-11-23T20:00:41.673Z,6.80
2018-11-23T20:03:11.322Z,6.90
2018-11-23T20:05:40.421Z,6.80
2018-11-23T20:08:09.333Z,6.80
2018-11-23T20:10:38.192Z,6.90
2018-11-23T20:13:07.017Z,6.80
2018-11-23T20:15:36.473Z,6.80
2018-11-23T20:18:05.953Z,6.80
2018-11-23T20:20:35.287Z,6.70
2018-11-23T20:23:04.244Z,6.70
2018-11-23T20:25:33.089Z,6.90
2018-11-23T20:28:02.112Z,6.90
2018-11-23T20:30:30.946Z,6.70
2018-11-23T20:33:00.477Z,6.70
2018-11-23T20:35:30.807Z,6.70
2018-11-23T20:38:00.608Z,6.60
2018-11-23T20:40:29.507Z,6.70
2018-11-23T20:42:58.765Z,6.70
2018-11-23T20:45:28.240Z,6.70
2018-11-23T20:47:57.079Z,6.60
2018-11-23T20:50:25.965Z,6.70
2018-11-23T20:52:55.148Z,6.60
2018-11-23T20:55:23.992Z,6.70
2018-11-23T20:57:52.843Z,6.70
2018-11-23T21:00:22.077Z,6.60
2018-11-23T21:02:51.873Z,6.70
2018-11-23T21:05:21.705Z,6.70
2018-11-23T21:07:50.960Z,6.70
2018-11-23T21:10:31.616Z,6.70
2018-11-23T21:13:00.487Z,6.70
2018-11-23T21:15:30.298Z,6.60
2018-11-23T21:18:01.824Z,6.60
2018-11-23T21:20:30.593Z,6.50
2018-11-23T21:22:59.435Z,6.40
2018-11-23T21:25:28.387Z,6.40
2018-11-23T21:27:57.241Z,6.40
2018-11-23T21:30:26.134Z,6.50
2018-11-23T21:32:55.886Z,6.60
2018-11-23T21:35:25.139Z,6.70
2018-11-23T21:37:54.020Z,6.60
2018-11-23T21:40:22.909Z,6.70
2018-11-23T21:42:51.871Z,6.70
2018-11-23T21:45:20.809Z,6.60
2018-11-23T21:47:49.641Z,6.60
2018-11-23T21:50:24.912Z,6.60
2018-11-23T21:52:48.158Z,6.60
2018-11-23T21:55:18.199Z,6.60
2018-11-23T21:57:47.032Z,6.50
2018-11-23T22:00:16.457Z,6.50
2018-11-23T22:02:45.465Z,6.50
2018-11-23T22:05:14.447Z,6.40
2018-11-23T22:07:43.293Z,6.30
2018-11-23T22:10:16.209Z,6.40
2018-11-23T22:12:45.118Z,6.20
2018-11-23T22:15:22.114Z,6.30
2018-11-23T22:17:52.061Z,6.30
2018-11-23T22:20:21.668Z,6.40
2018-11-23T22:22:50.554Z,6.50
2018-11-23T22:25:20.561Z,6.50
2018-11-23T22:27:49.564Z,6.40
2018-11-23T22:30:29.212Z,6.50
2018-11-23T22:32:59.122Z,6.50
2018-11-23T22:35:29.780Z,6.40
2018-11-23T22:37:58.627Z,6.50
2018-11-23T22:40:27.472Z,6.40
2018-11-23T22:42:57.519Z,6.50
2018-11-23T22:45:26.412Z,6.50
2018-11-23T22:47:55.249Z,6.60
2018-11-23T22:50:24.538Z,6.60
2018-11-23T22:52:53.379Z,6.60
2018-11-23T22:55:23.269Z,6.50
2018-11-23T22:57:53.946Z,6.50
2018-11-23T23:00:40.342Z,6.50
2018-11-23T23:03:09.429Z,6.50
2018-11-23T23:05:38.285Z,6.40
2018-11-23T23:08:07.264Z,6.40
2018-11-23T23:10:36.286Z,6.40
2018-11-23T23:13:05.987Z,6.40
2018-11-23T23:15:34.830Z,6.40
2018-11-23T23:18:03.685Z,6.40
2018-11-23T23:20:32.517Z,6.50
2018-11-23T23:23:01.366Z,6.40
2018-11-23T23:25:30.222Z,6.40
2018-11-23T23:27:59.132Z,6.50
2018-11-23T23:30:28.377Z,6.40
2018-11-23T23:32:57.445Z,6.40
2018-11-23T23:35:26.320Z,6.50
2018-11-23T23:37:55.181Z,6.70
2018-11-23T23:40:23.998Z,6.70
2018-11-23T23:42:52.990Z,6.80
2018-11-23T23:45:21.892Z,6.70
2018-11-23T23:47:50.793Z,6.60
2018-11-23T23:50:21.405Z,6.60
2018-11-23T23:52:50.868Z,6.60
2018-11-23T23:55:19.700Z,6.60
2018-11-23T23:57:48.793Z,6.70
